createdAt,value
2017-10-15T00:01:46.740Z,13.07
2017-10-15T00:04:14.255Z,8.60
2017-10-15T00:06:42.581Z,8.67
2017-10-15T00:09:10.091Z,9.43
2017-10-15T00:11:38.412Z,11.33
2017-10-15T00:14:05.922Z,11.43
2017-10-15T00:16:34.079Z,9.85
2017-10-15T00:19:01.618Z,10.55
2017-10-15T00:21:29.179Z,12.77
2017-10-15T00:23:56.706Z,10.20
2017-10-15T00:26:24.228Z,10.70
2017-10-15T00:28:56.863Z,9.17
2017-10-15T00:31:24.872Z,8.83
2017-10-15T00:33:54.099Z,8.70
2017-10-15T00:36:21.630Z,9.10
2017-10-15T00:38:49.935Z,8.80
2017-10-15T00:41:19.785Z,8.50
2017-10-15T00:43:47.285Z,7.27
2017-10-15T00:46:14.788Z,7.67
2017-10-15T00:48:42.305Z,8.40
2017-10-15T00:51:10.649Z,7.93
2017-10-15T00:53:38.188Z,7.00
2017-10-15T00:56:05.695Z,9.60
2017-10-15T00:58:37.284Z,9.70
2017-10-15T01:01:04.826Z,7.80
2017-10-15T01:03:32.711Z,7.78
2017-10-15T01:06:00.955Z,9.60
2017-10-15T01:08:29.229Z,7.97
2017-10-15T01:10:57.254Z,8.85
2017-10-15T01:13:24.824Z,10.07
2017-10-15T01:15:52.323Z,11.73
2017-10-15T01:18:20.624Z,10.97
2017-10-15T01:20:48.199Z,10.95
2017-10-15T01:23:16.855Z,10.55
2017-10-15T01:25:44.391Z,11.40
2017-10-15T01:28:11.934Z,10.05
2017-10-15T01:30:39.471Z,9.07
2017-10-15T01:33:07.008Z,11.80
2017-10-15T01:35:36.206Z,9.87
2017-10-15T01:38:03.732Z,10.95
2017-10-15T01:40:32.020Z,11.50
2017-10-15T01:42:59.563Z,11.23
2017-10-15T01:45:31.112Z,10.00
2017-10-15T01:47:58.668Z,12.25
2017-10-15T01:50:26.210Z,11.20
2017-10-15T01:52:53.750Z,11.60
2017-10-15T01:55:21.472Z,12.90
2017-10-15T01:57:49.829Z,13.88
2017-10-15T02:00:18.147Z,12.77
2017-10-15T02:02:45.705Z,9.87
2017-10-15T02:05:13.207Z,11.80
2017-10-15T02:07:40.725Z,12.00
2017-10-15T02:10:09.077Z,10.77
2017-10-15T02:12:37.344Z,11.43
2017-10-15T02:15:12.565Z,10.13
2017-10-15T02:17:40.080Z,10.10
2017-10-15T02:20:07.609Z,12.20
2017-10-15T02:22:35.192Z,11.63
2017-10-15T02:25:02.723Z,11.85
2017-10-15T02:27:30.278Z,12.03
2017-10-15T02:29:57.920Z,10.57
2017-10-15T02:32:25.411Z,9.73
2017-10-15T02:34:53.557Z,10.63
2017-10-15T02:37:21.720Z,10.10
2017-10-15T02:39:49.232Z,11.87
2017-10-15T02:42:16.768Z,10.70
2017-10-15T02:44:44.278Z,12.60
2017-10-15T02:47:15.990Z,11.63
2017-10-15T02:49:43.515Z,12.87
2017-10-15T02:52:11.024Z,12.50
2017-10-15T02:54:38.569Z,13.57
2017-10-15T02:57:06.079Z,16.20
2017-10-15T02:59:33.635Z,15.48
2017-10-15T03:02:06.383Z,14.73
2017-10-15T03:04:33.902Z,14.10
2017-10-15T03:07:02.267Z,15.20
2017-10-15T03:09:30.572Z,14.90
2017-10-15T03:11:58.085Z,11.50
2017-10-15T03:14:25.628Z,17.07
2017-10-15T03:16:57.913Z,13.23
2017-10-15T03:19:25.571Z,12.03
2017-10-15T03:21:53.135Z,11.40
2017-10-15T03:24:20.636Z,12.87
2017-10-15T03:26:48.912Z,12.60
2017-10-15T03:29:16.680Z,12.88
2017-10-15T03:31:44.202Z,12.30
2017-10-15T03:34:15.783Z,12.23
2017-10-15T03:36:44.063Z,14.37
2017-10-15T03:39:12.374Z,12.55
2017-10-15T03:41:39.899Z,11.20
2017-10-15T03:44:08.206Z,10.60
2017-10-15T03:46:37.147Z,11.77
2017-10-15T03:49:08.058Z,10.65
2017-10-15T03:51:35.567Z,10.18
2017-10-15T03:54:03.889Z,9.63
2017-10-15T03:56:31.423Z,8.30
2017-10-15T03:58:58.972Z,9.60
2017-10-15T04:01:26.494Z,9.82
2017-10-15T04:03:53.999Z,11.10
2017-10-15T04:06:21.611Z,8.27
2017-10-15T04:08:49.111Z,9.13
2017-10-15T04:11:16.659Z,9.53
2017-10-15T04:13:44.887Z,9.55
2017-10-15T04:16:12.383Z,10.43
2017-10-15T04:18:43.148Z,10.30
2017-10-15T04:21:10.652Z,9.83
2017-10-15T04:23:38.371Z,10.30
2017-10-15T04:26:05.872Z,7.67
2017-10-15T04:28:34.295Z,10.60
2017-10-15T04:31:01.863Z,11.40
2017-10-15T04:33:29.896Z,12.40
2017-10-15T04:35:57.860Z,12.83
2017-10-15T04:38:25.395Z,8.80
2017-10-15T04:40:53.287Z,12.42
2017-10-15T04:43:20.792Z,7.73
2017-10-15T04:45:48.345Z,7.73
2017-10-15T04:48:15.856Z,7.80
2017-10-15T04:50:43.373Z,6.07
2017-10-15T04:53:11.147Z,8.20
2017-10-15T04:55:38.649Z,7.95
2017-10-15T04:58:06.698Z,7.73
2017-10-15T05:00:34.228Z,4.78
2017-10-15T05:03:01.727Z,5.97
2017-10-15T05:05:29.285Z,6.73
2017-10-15T05:07:56.783Z,6.22
2017-10-15T05:10:24.307Z,6.13
2017-10-15T05:12:51.852Z,7.30
2017-10-15T05:15:19.346Z,6.55
2017-10-15T05:17:46.879Z,6.70
2017-10-15T05:20:15.888Z,8.40
2017-10-15T05:22:43.427Z,7.20
2017-10-15T05:25:10.924Z,7.50
2017-10-15T05:27:38.447Z,6.70
2017-10-15T05:30:06.028Z,6.47
2017-10-15T05:32:34.078Z,7.03
2017-10-15T05:35:01.582Z,8.90
2017-10-15T05:37:29.960Z,7.80
2017-10-15T05:39:57.725Z,10.20
2017-10-15T05:42:25.256Z,7.90
2017-10-15T05:44:54.595Z,9.45
2017-10-15T05:47:22.151Z,10.07
2017-10-15T05:49:49.664Z,9.77
2017-10-15T05:52:18.866Z,8.40
2017-10-15T05:54:46.409Z,8.13
2017-10-15T05:57:13.988Z,7.53
2017-10-15T05:59:41.492Z,8.23
2017-10-15T06:02:09.047Z,6.70
2017-10-15T06:04:44.595Z,8.00
2017-10-15T06:07:12.088Z,8.13
2017-10-15T06:09:39.615Z,9.10
2017-10-15T06:12:08.064Z,7.00
2017-10-15T06:14:35.879Z,7.53
2017-10-15T06:17:03.736Z,9.05
2017-10-15T06:19:33.207Z,10.50
2017-10-15T06:22:00.803Z,10.00
2017-10-15T06:24:28.326Z,9.63
2017-10-15T06:26:56.232Z,7.77
2017-10-15T06:29:24.257Z,8.47
2017-10-15T06:31:52.391Z,8.07
2017-10-15T06:34:23.500Z,7.97
2017-10-15T06:36:51.432Z,8.33
2017-10-15T06:39:19.020Z,9.97
2017-10-15T06:41:47.091Z,10.65
2017-10-15T06:44:14.959Z,9.90
2017-10-15T06:46:42.728Z,10.60
2017-10-15T06:49:10.410Z,10.90
2017-10-15T06:51:38.373Z,9.80
2017-10-15T06:54:07.175Z,12.10
2017-10-15T06:56:35.394Z,10.95
2017-10-15T06:59:03.909Z,11.40
2017-10-15T07:01:31.408Z,9.90
2017-10-15T07:03:58.931Z,12.40
2017-10-15T07:06:26.499Z,12.97
2017-10-15T07:08:54.012Z,13.27
2017-10-15T07:11:22.279Z,13.52
2017-10-15T07:13:50.264Z,14.55
2017-10-15T07:16:17.788Z,14.83
2017-10-15T07:18:45.306Z,14.63
2017-10-15T07:21:12.886Z,14.00
2017-10-15T07:23:42.515Z,14.43
2017-10-15T07:26:10.028Z,14.00
2017-10-15T07:28:37.568Z,15.23
2017-10-15T07:31:05.352Z,14.17
2017-10-15T07:33:33.403Z,17.73
2017-10-15T07:36:05.051Z,15.43
2017-10-15T07:38:32.576Z,14.03
2017-10-15T07:41:00.138Z,14.70
2017-10-15T07:43:27.694Z,16.80
2017-10-15T07:45:55.225Z,15.73
2017-10-15T07:48:24.171Z,17.73
2017-10-15T07:50:57.191Z,15.73
2017-10-15T07:53:24.703Z,15.37
2017-10-15T07:55:53.980Z,14.10
2017-10-15T07:58:21.534Z,15.60
2017-10-15T08:00:49.052Z,15.30
2017-10-15T08:03:16.579Z,15.00
2017-10-15T08:05:47.775Z,15.70
2017-10-15T08:08:15.276Z,16.53
2017-10-15T08:10:43.397Z,15.80
2017-10-15T08:13:10.919Z,15.90
2017-10-15T08:15:38.490Z,15.60
2017-10-15T08:18:06.016Z,16.53
2017-10-15T08:20:33.562Z,15.70
2017-10-15T08:23:01.141Z,16.55
2017-10-15T08:25:28.753Z,17.00
2017-10-15T08:27:56.836Z,16.45
2017-10-15T08:30:24.355Z,17.17
2017-10-15T08:32:52.659Z,16.97
2017-10-15T08:35:20.220Z,17.63
2017-10-15T08:37:47.739Z,18.00
2017-10-15T08:40:15.252Z,16.12
2017-10-15T08:42:42.807Z,16.52
2017-10-15T08:45:11.667Z,19.27
2017-10-15T08:47:39.183Z,15.87
2017-10-15T08:50:06.742Z,16.85
2017-10-15T08:52:35.171Z,16.50
2017-10-15T08:55:02.712Z,18.77
2017-10-15T08:57:30.348Z,17.67
2017-10-15T08:59:57.860Z,18.00
2017-10-15T09:02:25.407Z,17.13
2017-10-15T09:04:52.959Z,16.17
2017-10-15T09:07:25.252Z,17.10
2017-10-15T09:09:52.767Z,17.00
2017-10-15T09:12:21.101Z,17.27
2017-10-15T09:14:49.596Z,16.90
2017-10-15T09:17:17.104Z,17.67
2017-10-15T09:19:44.828Z,18.53
2017-10-15T09:22:16.139Z,16.13
2017-10-15T09:24:43.697Z,15.30
2017-10-15T09:27:11.227Z,15.87
2017-10-15T09:29:39.551Z,17.70
2017-10-15T09:32:07.092Z,16.83
2017-10-15T09:34:34.752Z,15.43
2017-10-15T09:37:02.938Z,17.30
2017-10-15T09:39:30.553Z,17.40
2017-10-15T09:41:58.382Z,17.33
2017-10-15T09:44:26.695Z,15.90
2017-10-15T09:46:55.019Z,15.17
2017-10-15T09:49:23.498Z,15.93
2017-10-15T09:51:51.047Z,16.20
2017-10-15T09:54:18.581Z,14.67
2017-10-15T09:56:47.543Z,15.30
2017-10-15T09:59:15.052Z,14.53
2017-10-15T10:01:42.567Z,16.30
2017-10-15T10:04:10.135Z,14.52
2017-10-15T10:06:37.656Z,14.83
2017-10-15T10:09:05.255Z,15.67
2017-10-15T10:11:33.597Z,14.17
2017-10-15T10:14:02.046Z,15.93
2017-10-15T10:16:29.763Z,14.30
2017-10-15T10:18:57.399Z,13.60
2017-10-15T10:21:24.991Z,15.20
2017-10-15T10:23:52.692Z,14.10
2017-10-15T10:26:21.659Z,13.82
2017-10-15T10:28:50.039Z,12.90
2017-10-15T10:31:17.602Z,12.30
2017-10-15T10:33:45.938Z,12.00
2017-10-15T10:36:13.493Z,12.33
2017-10-15T10:38:42.052Z,11.00
2017-10-15T10:41:11.047Z,11.23
2017-10-15T10:43:38.568Z,10.83
2017-10-15T10:46:06.922Z,10.17
2017-10-15T10:48:35.566Z,8.90
2017-10-15T10:51:03.074Z,9.23
2017-10-15T10:53:30.595Z,8.97
2017-10-15T10:55:58.151Z,8.90
2017-10-15T10:58:25.667Z,9.13
2017-10-15T11:00:54.164Z,10.88
2017-10-15T11:03:22.543Z,9.90
2017-10-15T11:05:50.083Z,13.87
2017-10-15T11:08:19.316Z,8.65
2017-10-15T11:10:46.826Z,7.57
2017-10-15T11:13:15.163Z,6.97
2017-10-15T11:15:44.149Z,7.60
2017-10-15T11:18:11.696Z,6.35
2017-10-15T11:20:39.231Z,5.87
2017-10-15T11:23:06.748Z,6.95
2017-10-15T11:25:34.298Z,6.27
2017-10-15T11:28:02.843Z,6.50
2017-10-15T11:30:30.378Z,6.77
2017-10-15T11:32:58.776Z,7.20
2017-10-15T11:35:26.343Z,5.97
2017-10-15T11:37:53.872Z,4.60
2017-10-15T11:40:22.039Z,4.65
2017-10-15T11:42:49.570Z,5.60
2017-10-15T11:45:17.112Z,5.97
2017-10-15T11:47:44.662Z,4.43
2017-10-15T11:50:12.195Z,4.70
2017-10-15T11:52:41.528Z,6.00
2017-10-15T11:55:09.031Z,3.37
2017-10-15T11:57:36.585Z,4.32
2017-10-15T12:00:04.121Z,3.92
2017-10-15T12:02:31.636Z,4.63
2017-10-15T12:05:00.879Z,6.90
2017-10-15T12:07:28.730Z,4.30
2017-10-15T12:09:59.787Z,4.17
2017-10-15T12:12:27.306Z,4.10
2017-10-15T12:14:55.638Z,3.62
2017-10-15T12:17:23.198Z,4.10
2017-10-15T12:19:50.832Z,6.20
2017-10-15T12:22:18.451Z,3.80
2017-10-15T12:24:45.997Z,5.87
2017-10-15T12:27:13.498Z,3.20
2017-10-15T12:29:41.046Z,2.75
2017-10-15T12:32:09.812Z,3.33
2017-10-15T12:34:37.355Z,4.00
2017-10-15T12:37:04.981Z,4.20
2017-10-15T12:39:32.487Z,3.15
2017-10-15T12:42:03.449Z,3.60
2017-10-15T12:44:30.945Z,3.50
2017-10-15T12:46:58.872Z,3.95
2017-10-15T12:49:26.404Z,3.30
2017-10-15T12:51:54.055Z,3.15
2017-10-15T12:54:21.591Z,2.73
2017-10-15T12:56:49.099Z,2.87
2017-10-15T12:59:16.633Z,2.70
2017-10-15T13:01:44.147Z,2.83
2017-10-15T13:04:12.833Z,3.00
2017-10-15T13:06:40.363Z,4.80
2017-10-15T13:09:07.924Z,3.70
2017-10-15T13:11:35.423Z,2.70
2017-10-15T13:14:02.931Z,3.13
2017-10-15T13:16:32.237Z,3.30
2017-10-15T13:19:02.092Z,3.60
2017-10-15T13:21:29.641Z,2.80
2017-10-15T13:23:58.192Z,4.00
2017-10-15T13:26:33.989Z,3.77
2017-10-15T13:29:01.503Z,3.27
2017-10-15T13:31:29.846Z,3.78
2017-10-15T13:33:57.336Z,3.50
2017-10-15T13:36:24.891Z,4.13
2017-10-15T13:38:53.213Z,5.43
2017-10-15T13:41:24.867Z,4.00
2017-10-15T13:43:52.368Z,3.57
2017-10-15T13:46:19.914Z,2.70
2017-10-15T13:48:47.527Z,3.60
2017-10-15T13:51:15.124Z,3.90
2017-10-15T13:53:42.639Z,2.87
2017-10-15T13:56:10.785Z,4.05
2017-10-15T13:58:38.289Z,3.40
2017-10-15T14:01:06.883Z,3.33
2017-10-15T14:03:34.660Z,3.67
2017-10-15T14:06:03.489Z,3.07
2017-10-15T14:08:31.293Z,3.97
2017-10-15T14:10:59.234Z,3.22
2017-10-15T14:13:27.755Z,4.43
2017-10-15T14:15:56.305Z,3.37
2017-10-15T14:18:25.975Z,3.70
2017-10-15T14:20:53.796Z,3.47
2017-10-15T14:23:21.729Z,3.90
2017-10-15T14:25:51.683Z,4.05
2017-10-15T14:28:23.659Z,3.00
2017-10-15T14:30:52.826Z,3.50
2017-10-15T14:33:22.410Z,3.70
2017-10-15T14:35:52.056Z,4.00
2017-10-15T14:38:19.866Z,5.20
2017-10-15T14:40:47.927Z,5.10
2017-10-15T14:43:15.868Z,3.37
2017-10-15T14:45:44.353Z,4.07
2017-10-15T14:48:12.024Z,2.80
2017-10-15T14:50:41.600Z,3.20
2017-10-15T14:53:09.165Z,2.93
2017-10-15T14:55:36.851Z,2.90
2017-10-15T14:58:08.669Z,4.07
2017-10-15T15:00:36.472Z,3.77
2017-10-15T15:03:04.336Z,3.78
2017-10-15T15:05:32.140Z,3.13
2017-10-15T15:08:00.383Z,3.22
2017-10-15T15:10:28.333Z,3.47
2017-10-15T15:12:56.078Z,3.60
2017-10-15T15:15:24.244Z,3.55
2017-10-15T15:17:52.915Z,3.27
2017-10-15T15:20:20.700Z,4.00
2017-10-15T15:22:48.797Z,3.60
2017-10-15T15:25:16.495Z,3.73
2017-10-15T15:27:44.996Z,3.53
2017-10-15T15:30:12.852Z,4.00
2017-10-15T15:32:42.028Z,5.30
2017-10-15T15:35:09.772Z,4.10
2017-10-15T15:37:37.490Z,4.70
2017-10-15T15:40:05.383Z,4.03
2017-10-15T15:42:34.139Z,4.07
2017-10-15T15:45:05.942Z,5.20
2017-10-15T15:47:34.617Z,4.03
2017-10-15T15:50:03.123Z,4.60
2017-10-15T15:52:31.079Z,4.00
2017-10-15T15:54:59.613Z,4.65
2017-10-15T15:57:27.290Z,4.93
2017-10-15T15:59:59.036Z,5.30
2017-10-15T16:02:26.665Z,4.47
2017-10-15T16:04:54.773Z,4.70
2017-10-15T16:07:22.439Z,4.83
2017-10-15T16:09:50.425Z,4.60
2017-10-15T16:12:19.744Z,4.85
2017-10-15T16:14:47.337Z,4.95
2017-10-15T16:17:15.139Z,5.30
2017-10-15T16:19:43.917Z,5.35
2017-10-15T16:22:11.663Z,6.05
2017-10-15T16:24:39.658Z,4.70
2017-10-15T16:27:09.278Z,4.05
2017-10-15T16:29:40.355Z,5.13
2017-10-15T16:32:09.804Z,5.20
2017-10-15T16:34:39.632Z,5.70
2017-10-15T16:37:07.424Z,6.53
2017-10-15T16:39:35.084Z,5.93
2017-10-15T16:42:04.298Z,8.53
2017-10-15T16:44:32.866Z,7.53
2017-10-15T16:47:01.096Z,7.30
2017-10-15T16:49:29.751Z,8.10
2017-10-15T16:51:59.331Z,7.97
2017-10-15T16:54:27.030Z,8.30
2017-10-15T16:56:54.868Z,9.20
2017-10-15T16:59:23.521Z,8.57
2017-10-15T17:01:51.537Z,6.07
2017-10-15T17:04:19.643Z,6.03
2017-10-15T17:06:49.199Z,5.30
2017-10-15T17:09:17.044Z,6.43
2017-10-15T17:11:45.478Z,5.70
2017-10-15T17:14:13.328Z,7.63
2017-10-15T17:16:41.364Z,7.03
2017-10-15T17:19:09.362Z,8.40
2017-10-15T17:21:38.584Z,7.45
2017-10-15T17:24:07.545Z,8.03
2017-10-15T17:26:36.455Z,7.93
2017-10-15T17:29:05.119Z,11.40
2017-10-15T17:31:37.076Z,8.00
2017-10-15T17:34:05.031Z,7.97
2017-10-15T17:36:33.249Z,7.57
2017-10-15T17:39:02.854Z,7.72
2017-10-15T17:41:30.799Z,10.83
2017-10-15T17:43:59.185Z,8.77
2017-10-15T17:46:27.645Z,10.16
2017-10-15T17:48:56.724Z,7.70
2017-10-15T17:51:25.589Z,11.23
2017-10-15T17:53:54.730Z,10.27
2017-10-15T17:56:22.565Z,8.95
2017-10-15T17:58:51.095Z,7.63
2017-10-15T18:01:19.774Z,7.77
2017-10-15T18:03:48.365Z,8.17
2017-10-15T18:06:16.341Z,8.73
2017-10-15T18:08:44.442Z,9.00
2017-10-15T18:11:12.281Z,8.57
2017-10-15T18:13:40.248Z,9.50
2017-10-15T18:16:08.609Z,9.17
2017-10-15T18:18:36.764Z,8.05
2017-10-15T18:21:04.496Z,7.63
2017-10-15T18:23:32.144Z,8.90
2017-10-15T18:25:59.989Z,9.10
2017-10-15T18:28:28.455Z,10.27
2017-10-15T18:31:09.725Z,8.70
2017-10-15T18:33:39.221Z,9.16
2017-10-15T18:36:07.072Z,8.32
2017-10-15T18:38:35.806Z,9.27
2017-10-15T18:41:03.579Z,10.50
2017-10-15T18:43:31.423Z,8.77
2017-10-15T18:45:59.818Z,9.07
2017-10-15T18:48:31.579Z,9.00
2017-10-15T18:50:59.152Z,9.07
2017-10-15T18:53:28.357Z,9.45
2017-10-15T18:55:56.563Z,10.13
2017-10-15T18:58:24.189Z,9.90
2017-10-15T19:00:53.540Z,10.48
2017-10-15T19:03:21.269Z,10.57
2017-10-15T19:05:49.044Z,9.87
2017-10-15T19:08:17.041Z,11.93
2017-10-15T19:10:44.883Z,11.60
2017-10-15T19:13:12.627Z,11.17
2017-10-15T19:15:40.822Z,10.87
2017-10-15T19:18:08.929Z,11.63
2017-10-15T19:20:36.794Z,11.37
2017-10-15T19:23:04.803Z,10.60
2017-10-15T19:25:32.934Z,10.45
2017-10-15T19:28:01.378Z,10.60
2017-10-15T19:30:29.067Z,10.23
2017-10-15T19:32:57.152Z,11.27
2017-10-15T19:35:26.046Z,11.60
2017-10-15T19:37:53.910Z,11.63
2017-10-15T19:40:21.546Z,12.03
2017-10-15T19:42:52.052Z,10.35
2017-10-15T19:45:20.514Z,10.43
2017-10-15T19:47:49.070Z,10.93
2017-10-15T19:50:16.902Z,10.27
2017-10-15T19:52:45.713Z,11.05
2017-10-15T19:55:13.400Z,11.23
2017-10-15T19:57:41.157Z,12.15
2017-10-15T20:00:10.631Z,11.90
2017-10-15T20:02:38.377Z,10.20
2017-10-15T20:05:06.299Z,10.43
2017-10-15T20:07:35.018Z,12.23
2017-10-15T20:10:02.740Z,11.17
2017-10-15T20:12:30.627Z,11.97
2017-10-15T20:14:58.462Z,12.77
2017-10-15T20:17:26.539Z,10.67
2017-10-15T20:19:54.564Z,12.30
2017-10-15T20:22:22.366Z,13.20
2017-10-15T20:24:50.101Z,13.25
2017-10-15T20:27:18.715Z,14.43
2017-10-15T20:29:46.476Z,13.87
2017-10-15T20:32:14.417Z,13.13
2017-10-15T20:34:43.748Z,12.63
2017-10-15T20:37:11.798Z,13.40
2017-10-15T20:39:39.426Z,13.15
2017-10-15T20:42:07.087Z,9.88
2017-10-15T20:44:35.514Z,10.37
2017-10-15T20:47:03.024Z,8.80
2017-10-15T20:49:31.324Z,8.90
2017-10-15T20:51:59.680Z,8.83
2017-10-15T20:54:27.644Z,9.33
2017-10-15T20:56:55.205Z,10.02
2017-10-15T20:59:22.757Z,10.00
2017-10-15T21:01:50.316Z,11.73
2017-10-15T21:04:18.060Z,9.55
2017-10-15T21:06:50.513Z,10.27
2017-10-15T21:09:18.032Z,9.63
2017-10-15T21:11:47.270Z,10.97
2017-10-15T21:14:15.016Z,10.90
2017-10-15T21:16:42.592Z,11.03
2017-10-15T21:19:11.045Z,10.43
2017-10-15T21:21:39.315Z,11.48
2017-10-15T21:24:06.889Z,12.20
2017-10-15T21:26:34.473Z,10.60
2017-10-15T21:29:02.109Z,10.07
2017-10-15T21:31:31.231Z,10.90
2017-10-15T21:34:02.403Z,12.13
2017-10-15T21:36:29.940Z,9.83
2017-10-15T21:38:57.496Z,9.37
2017-10-15T21:41:26.253Z,8.40
2017-10-15T21:43:53.808Z,8.83
2017-10-15T21:46:22.089Z,9.13
2017-10-15T21:48:49.825Z,8.65
2017-10-15T21:51:17.392Z,9.85
2017-10-15T21:53:45.693Z,10.70
2017-10-15T21:56:13.688Z,10.53
2017-10-15T21:58:41.252Z,9.67
2017-10-15T22:01:09.269Z,9.60
2017-10-15T22:03:36.822Z,9.83
2017-10-15T22:06:04.339Z,8.90
2017-10-15T22:08:31.948Z,8.47
2017-10-15T22:10:59.506Z,8.30
2017-10-15T22:13:28.752Z,7.13
2017-10-15T22:15:56.288Z,8.10
2017-10-15T22:18:29.401Z,6.80
2017-10-15T22:21:02.527Z,6.53
2017-10-15T22:23:30.175Z,7.97
2017-10-15T22:25:57.967Z,7.20
2017-10-15T22:28:25.771Z,6.77
2017-10-15T22:30:55.082Z,6.47
2017-10-15T22:33:22.642Z,5.93
2017-10-15T22:35:50.912Z,8.77
2017-10-15T22:38:18.586Z,7.50
2017-10-15T22:40:46.111Z,9.90
2017-10-15T22:43:13.631Z,9.60
2017-10-15T22:45:41.180Z,7.97
2017-10-15T22:48:08.684Z,6.83
2017-10-15T22:50:39.427Z,7.70
2017-10-15T22:53:06.992Z,8.00
2017-10-15T22:55:34.543Z,8.37
2017-10-15T22:58:02.593Z,9.18
2017-10-15T23:00:30.107Z,7.57
2017-10-15T23:02:57.611Z,7.18
2017-10-15T23:05:25.933Z,7.97
2017-10-15T23:07:53.423Z,4.87
2017-10-15T23:10:20.926Z,5.12
2017-10-15T23:12:49.228Z,6.65
2017-10-15T23:15:16.768Z,5.40
2017-10-15T23:17:44.338Z,6.47
2017-10-15T23:20:11.876Z,9.27
2017-10-15T23:22:39.836Z,5.85
2017-10-15T23:25:07.374Z,7.50
2017-10-15T23:27:35.736Z,7.57
2017-10-15T23:30:03.277Z,6.30
2017-10-15T23:32:30.784Z,4.33
2017-10-15T23:34:59.148Z,8.30
2017-10-15T23:37:26.656Z,8.20
2017-10-15T23:39:56.145Z,8.57
2017-10-15T23:42:24.229Z,9.13
2017-10-15T23:44:51.742Z,5.43
2017-10-15T23:47:19.675Z,6.70
2017-10-15T23:49:47.220Z,5.70
2017-10-15T23:52:18.088Z,8.40
2017-10-15T23:54:45.583Z,5.40
2017-10-15T23:57:14.803Z,10.33
2017-10-15T23:59:42.304Z,6.12
